createdAt,value
2024-03-18T00:00:59.267Z,65.56
2024-03-18T00:03:34.835Z,65.50
2024-03-18T00:06:02.049Z,65.52
2024-03-18T00:08:29.229Z,65.55
2024-03-18T00:10:56.369Z,65.75
2024-03-18T00:13:23.641Z,65.56
2024-03-18T00:15:50.779Z,65.75
2024-03-18T00:18:17.974Z,65.57
2024-03-18T00:20:45.196Z,65.54
2024-03-18T00:23:12.444Z,65.65
2024-03-18T00:25:39.682Z,65.69
2024-03-18T00:28:08.627Z,65.64
2024-03-18T00:30:38.267Z,65.77
2024-03-18T00:33:07.623Z,65.87
2024-03-18T00:35:35.014Z,65.81
2024-03-18T00:38:02.916Z,65.71
2024-03-18T00:40:30.436Z,65.78
2024-03-18T00:42:58.035Z,65.78
2024-03-18T00:45:25.202Z,65.92
2024-03-18T00:47:52.412Z,65.76
2024-03-18T00:50:19.907Z,65.89
2024-03-18T00:52:47.610Z,65.83
2024-03-18T00:55:14.852Z,65.81
2024-03-18T00:57:42.023Z,65.90
2024-03-18T01:00:12.492Z,65.90
2024-03-18T01:02:40.075Z,65.91
2024-03-18T01:05:10.476Z,65.99
2024-03-18T01:07:39.311Z,65.88
2024-03-18T01:10:07.223Z,65.99
2024-03-18T01:12:35.002Z,65.97
2024-03-18T01:15:02.685Z,66.10
2024-03-18T01:17:29.882Z,66.25
2024-03-18T01:19:57.043Z,66.07
2024-03-18T01:22:25.346Z,65.92
2024-03-18T01:24:52.611Z,66.06
2024-03-18T01:27:19.816Z,66.06
2024-03-18T01:29:49.461Z,66.08
2024-03-18T01:32:17.305Z,66.21
2024-03-18T01:34:44.483Z,66.12
2024-03-18T01:37:11.703Z,66.16
2024-03-18T01:39:38.923Z,66.13
2024-03-18T01:42:06.332Z,66.14
2024-03-18T01:44:33.494Z,66.27
2024-03-18T01:47:01.008Z,66.37
2024-03-18T01:49:28.228Z,66.28
2024-03-18T01:51:55.567Z,66.30
2024-03-18T01:54:22.796Z,66.31
2024-03-18T01:56:49.938Z,66.39
2024-03-18T01:59:17.091Z,66.28
2024-03-18T02:01:44.240Z,66.37
2024-03-18T02:04:12.285Z,66.43
2024-03-18T02:06:42.624Z,66.46
2024-03-18T02:09:10.259Z,66.50
2024-03-18T02:11:37.476Z,66.50
2024-03-18T02:14:15.329Z,66.52
2024-03-18T02:16:43.587Z,66.60
2024-03-18T02:19:11.050Z,66.53
2024-03-18T02:21:38.340Z,66.52
2024-03-18T02:24:07.801Z,66.51
2024-03-18T02:26:34.994Z,66.71
2024-03-18T02:29:02.728Z,66.61
2024-03-18T02:31:29.970Z,66.62
2024-03-18T02:33:57.121Z,66.63
2024-03-18T02:36:24.291Z,66.81
2024-03-18T02:38:53.574Z,66.68
2024-03-18T02:41:21.311Z,66.68
2024-03-18T02:43:48.923Z,66.73
2024-03-18T02:46:16.085Z,66.65
2024-03-18T02:48:43.579Z,66.67
2024-03-18T02:51:10.790Z,66.76
2024-03-18T02:53:37.983Z,66.72
2024-03-18T02:56:05.245Z,66.81
2024-03-18T02:58:32.394Z,66.85
2024-03-18T03:00:59.940Z,66.97
2024-03-18T03:03:27.245Z,67.00
2024-03-18T03:05:55.000Z,67.01
2024-03-18T03:08:23.737Z,67.06
2024-03-18T03:10:50.868Z,67.14
2024-03-18T03:13:17.990Z,67.11
2024-03-18T03:15:45.145Z,67.13
2024-03-18T03:18:12.318Z,67.30
2024-03-18T03:20:39.514Z,67.46
2024-03-18T03:23:06.652Z,67.23
2024-03-18T03:25:33.799Z,67.33
2024-03-18T03:28:01.061Z,67.53
2024-03-18T03:30:28.220Z,67.54
2024-03-18T03:32:55.442Z,67.53
2024-03-18T03:35:22.964Z,67.49
2024-03-18T03:37:50.277Z,67.49
2024-03-18T03:40:17.576Z,67.42
2024-03-18T03:42:44.762Z,67.44
2024-03-18T03:45:12.048Z,67.34
2024-03-18T03:47:39.887Z,67.54
2024-03-18T03:50:10.280Z,67.51
2024-03-18T03:52:37.436Z,67.60
2024-03-18T03:55:04.950Z,67.67
2024-03-18T03:57:32.169Z,67.74
2024-03-18T03:59:59.369Z,67.64
2024-03-18T04:02:26.601Z,67.71
2024-03-18T04:04:53.876Z,67.83
2024-03-18T04:07:24.727Z,67.77
2024-03-18T04:09:51.997Z,67.82
2024-03-18T04:12:19.442Z,67.81
2024-03-18T04:14:48.447Z,67.70
2024-03-18T04:17:16.645Z,67.72
2024-03-18T04:19:43.814Z,67.82
2024-03-18T04:22:11.920Z,67.82
2024-03-18T04:24:39.434Z,67.87
2024-03-18T04:27:06.581Z,67.91
2024-03-18T04:29:33.841Z,67.92
2024-03-18T04:32:01.302Z,67.83
2024-03-18T04:34:30.748Z,67.97
2024-03-18T04:36:58.177Z,67.91
2024-03-18T04:39:25.438Z,67.97
2024-03-18T04:41:52.758Z,67.91
2024-03-18T04:44:19.947Z,67.96
2024-03-18T04:46:47.152Z,67.99
2024-03-18T04:49:14.274Z,67.98
2024-03-18T04:51:41.449Z,68.06
2024-03-18T04:54:08.603Z,68.03
2024-03-18T04:56:35.843Z,68.09
2024-03-18T04:59:03.967Z,68.10
2024-03-18T05:01:31.950Z,68.23
2024-03-18T05:04:00.604Z,68.16
2024-03-18T05:06:28.372Z,68.17
2024-03-18T05:08:55.868Z,68.20
2024-03-18T05:11:23.095Z,68.24
2024-03-18T05:13:50.285Z,68.29
2024-03-18T05:16:20.285Z,68.40
2024-03-18T05:18:49.142Z,68.46
2024-03-18T05:21:16.476Z,68.53
2024-03-18T05:23:43.641Z,68.54
2024-03-18T05:26:13.048Z,68.71
2024-03-18T05:28:40.295Z,68.73
2024-03-18T05:31:07.474Z,68.84
2024-03-18T05:33:34.631Z,68.91
2024-03-18T05:36:01.917Z,68.95
2024-03-18T05:38:29.098Z,69.04
2024-03-18T05:40:56.309Z,68.93
2024-03-18T05:43:25.060Z,69.03
2024-03-18T05:45:52.165Z,68.94
2024-03-18T05:48:19.922Z,69.08
2024-03-18T05:50:47.107Z,69.18
2024-03-18T05:53:15.157Z,69.15
2024-03-18T05:55:42.329Z,69.12
2024-03-18T05:58:09.503Z,69.05
2024-03-18T06:00:38.867Z,69.22
2024-03-18T06:03:06.730Z,69.25
2024-03-18T06:05:34.056Z,69.22
2024-03-18T06:08:01.283Z,69.17
2024-03-18T06:10:28.504Z,69.11
2024-03-18T06:12:55.696Z,69.11
2024-03-18T06:15:22.882Z,69.25
2024-03-18T06:17:50.875Z,69.24
2024-03-18T06:20:18.733Z,69.21
2024-03-18T06:22:48.225Z,69.10
2024-03-18T06:25:32.164Z,69.15
2024-03-18T06:27:59.307Z,69.07
2024-03-18T06:30:26.527Z,69.21
2024-03-18T06:32:53.785Z,69.29
2024-03-18T06:35:21.073Z,69.21
2024-03-18T06:37:48.275Z,69.15
2024-03-18T06:40:20.232Z,69.17
2024-03-18T06:42:52.223Z,69.24
2024-03-18T06:45:21.145Z,69.19
2024-03-18T06:47:50.218Z,69.23
2024-03-18T06:50:21.058Z,69.10
2024-03-18T06:52:48.538Z,69.24
2024-03-18T06:55:15.765Z,69.27
2024-03-18T06:57:42.930Z,69.16
2024-03-18T07:00:10.692Z,69.17
2024-03-18T07:02:37.941Z,69.15
2024-03-18T07:05:05.698Z,69.21
2024-03-18T07:07:33.092Z,69.07
2024-03-18T07:10:00.289Z,69.10
2024-03-18T07:12:27.660Z,69.11
2024-03-18T07:14:54.900Z,69.05
2024-03-18T07:17:22.342Z,69.04
2024-03-18T07:20:02.927Z,68.89
2024-03-18T07:22:39.498Z,68.85
2024-03-18T07:25:10.894Z,68.86
2024-03-18T07:27:42.853Z,68.90
2024-03-18T07:30:14.604Z,69.00
2024-03-18T07:32:42.499Z,69.05
2024-03-18T07:35:15.985Z,69.19
2024-03-18T07:37:43.647Z,69.14
2024-03-18T07:40:12.537Z,69.20
2024-03-18T07:42:41.271Z,69.12
2024-03-18T07:45:09.537Z,69.07
2024-03-18T07:47:36.956Z,69.12
2024-03-18T07:50:04.966Z,68.98
2024-03-18T07:52:32.374Z,68.88
2024-03-18T07:55:01.404Z,68.86
2024-03-18T07:57:29.343Z,68.69
2024-03-18T07:59:56.690Z,68.82
2024-03-18T08:02:23.859Z,68.79
2024-03-18T08:04:53.535Z,69.00
2024-03-18T08:07:20.805Z,68.92
2024-03-18T08:09:48.049Z,68.83
2024-03-18T08:12:15.230Z,68.75
2024-03-18T08:14:44.792Z,68.56
2024-03-18T08:17:12.398Z,68.53
2024-03-18T08:19:39.635Z,68.71
2024-03-18T08:22:13.959Z,68.74
2024-03-18T08:24:47.384Z,68.90
2024-03-18T08:27:15.166Z,68.99
2024-03-18T08:29:42.500Z,68.90
2024-03-18T08:32:10.445Z,68.89
2024-03-18T08:34:38.278Z,68.91
2024-03-18T08:37:05.475Z,69.05
2024-03-18T08:39:32.811Z,69.00
2024-03-18T08:42:00.044Z,68.99
2024-03-18T08:44:27.418Z,69.88
2024-03-18T08:46:54.754Z,70.99
2024-03-18T08:49:24.765Z,71.77
2024-03-18T08:51:51.926Z,70.94
2024-03-18T08:54:19.102Z,69.83
2024-03-18T08:56:46.399Z,69.40
2024-03-18T08:59:14.314Z,68.40
2024-03-18T09:01:41.609Z,68.10
2024-03-18T09:04:14.447Z,67.52
2024-03-18T09:06:49.036Z,67.53
2024-03-18T09:09:16.333Z,67.73
2024-03-18T09:11:43.988Z,67.58
2024-03-18T09:14:11.368Z,67.73
2024-03-18T09:16:38.594Z,67.74
2024-03-18T09:19:05.714Z,67.63
2024-03-18T09:21:32.930Z,67.91
2024-03-18T09:24:00.329Z,67.99
2024-03-18T09:26:27.455Z,68.01
2024-03-18T09:28:54.613Z,67.88
2024-03-18T09:31:21.839Z,67.96
2024-03-18T09:33:49.159Z,68.06
2024-03-18T09:36:16.382Z,68.25
2024-03-18T09:38:43.571Z,68.30
2024-03-18T09:41:18.304Z,68.48
2024-03-18T09:43:48.783Z,68.75
2024-03-18T09:46:20.147Z,68.66
2024-03-18T09:48:50.253Z,68.65
2024-03-18T09:51:21.521Z,68.80
2024-03-18T09:53:48.776Z,68.63
2024-03-18T09:56:16.509Z,68.71
2024-03-18T09:58:44.071Z,68.75
2024-03-18T10:01:14.204Z,68.86
2024-03-18T10:03:42.288Z,68.65
2024-03-18T10:06:09.626Z,68.65
2024-03-18T10:08:38.077Z,68.68
2024-03-18T10:11:05.335Z,68.69
2024-03-18T10:13:38.184Z,68.67
2024-03-18T10:25:12.817Z,68.59
2024-03-18T11:01:00.035Z,69.43
2024-03-18T11:03:50.447Z,69.57
2024-03-18T11:06:21.427Z,69.38
2024-03-18T11:08:56.794Z,69.41
2024-03-18T11:11:25.290Z,69.41
2024-03-18T11:13:53.733Z,69.40
2024-03-18T11:16:20.928Z,69.42
2024-03-18T11:18:49.405Z,69.18
2024-03-18T11:21:19.575Z,69.14
2024-03-18T11:24:04.256Z,69.25
2024-03-18T11:26:31.898Z,69.15
2024-03-18T11:29:10.045Z,68.50
2024-03-18T11:31:39.052Z,68.17
2024-03-18T11:34:08.202Z,67.90
2024-03-18T11:36:49.200Z,67.54
2024-03-18T11:39:18.103Z,67.26
2024-03-18T11:41:45.518Z,67.14
2024-03-18T11:44:14.648Z,67.17
2024-03-18T11:46:43.108Z,67.12
2024-03-18T11:49:21.293Z,67.06
2024-03-18T11:51:48.846Z,67.18
2024-03-18T11:54:16.008Z,67.24
2024-03-18T11:56:43.924Z,67.26
2024-03-18T11:59:15.848Z,67.43
2024-03-18T12:01:43.702Z,67.68
2024-03-18T12:04:10.911Z,67.75
2024-03-18T12:06:39.439Z,67.73
2024-03-18T12:09:07.041Z,67.43
2024-03-18T12:11:34.773Z,67.17
2024-03-18T12:14:02.129Z,67.08
2024-03-18T12:16:39.724Z,67.09
2024-03-18T12:19:12.769Z,66.95
2024-03-18T12:21:43.247Z,67.03
2024-03-18T12:24:28.202Z,67.22
2024-03-18T12:27:11.495Z,68.48
2024-03-18T12:29:39.020Z,68.82
2024-03-18T12:32:06.507Z,68.61
2024-03-18T12:34:33.655Z,67.97
2024-03-18T12:37:01.005Z,68.00
2024-03-18T12:39:31.965Z,67.26
2024-03-18T12:42:03.226Z,67.13
2024-03-18T12:44:30.530Z,66.95
2024-03-18T12:46:58.330Z,66.91
2024-03-18T12:49:25.504Z,66.83
2024-03-18T12:51:52.703Z,66.96
2024-03-18T12:54:19.947Z,66.87
2024-03-18T12:56:47.276Z,67.21
2024-03-18T12:59:14.794Z,67.28
2024-03-18T13:01:43.449Z,67.53
2024-03-18T13:04:12.720Z,67.20
2024-03-18T13:06:41.283Z,67.07
2024-03-18T13:09:09.111Z,66.33
2024-03-18T13:11:36.310Z,66.19
2024-03-18T13:14:03.500Z,66.55
2024-03-18T13:16:31.798Z,66.63
2024-03-18T13:18:59.323Z,68.85
2024-03-18T13:21:26.689Z,67.39
2024-03-18T13:23:53.884Z,66.15
2024-03-18T13:26:21.030Z,66.69
2024-03-18T13:28:48.382Z,65.63
2024-03-18T13:31:25.689Z,65.10
2024-03-18T13:33:53.546Z,65.30
2024-03-18T13:36:20.697Z,65.40
2024-03-18T13:38:47.896Z,65.34
2024-03-18T13:41:16.505Z,65.30
2024-03-18T13:43:44.559Z,65.49
2024-03-18T13:46:12.326Z,65.47
2024-03-18T13:48:39.741Z,65.52
2024-03-18T13:51:12.743Z,65.47
2024-03-18T13:53:41.048Z,65.46
2024-03-18T13:56:08.309Z,65.41
2024-03-18T13:58:35.651Z,65.76
2024-03-18T14:01:05.930Z,65.89
2024-03-18T14:03:34.225Z,65.82
2024-03-18T14:06:01.372Z,65.89
2024-03-18T14:08:28.513Z,66.10
2024-03-18T14:10:56.424Z,66.08
2024-03-18T14:13:24.581Z,66.19
2024-03-18T14:15:51.739Z,66.15
2024-03-18T14:18:18.919Z,66.02
2024-03-18T14:20:46.148Z,66.33
2024-03-18T14:23:13.309Z,66.10
2024-03-18T14:25:40.496Z,66.14
2024-03-18T14:28:08.067Z,66.13
2024-03-18T14:30:35.495Z,65.91
2024-03-18T14:33:02.784Z,65.82
2024-03-18T14:35:30.199Z,65.66
2024-03-18T14:37:57.841Z,65.51
2024-03-18T14:40:27.428Z,65.44
2024-03-18T14:42:54.818Z,65.52
2024-03-18T14:45:22.570Z,65.49
2024-03-18T14:47:50.413Z,65.70
2024-03-18T14:50:17.720Z,65.50
2024-03-18T14:52:45.392Z,65.67
2024-03-18T14:55:20.370Z,65.67
2024-03-18T14:57:47.598Z,65.76
2024-03-18T15:00:15.541Z,65.85
2024-03-18T15:02:43.033Z,65.83
2024-03-18T15:05:10.678Z,65.71
2024-03-18T15:07:37.852Z,65.66
2024-03-18T15:10:10.318Z,65.64
2024-03-18T15:12:38.631Z,65.67
2024-03-18T15:15:08.596Z,65.82
2024-03-18T15:17:51.583Z,65.84
2024-03-18T15:20:19.760Z,65.76
2024-03-18T15:22:48.649Z,65.90
2024-03-18T15:25:35.070Z,65.75
2024-03-18T15:28:02.929Z,65.80
2024-03-18T15:30:30.481Z,65.90
2024-03-18T15:33:01.777Z,65.87
2024-03-18T15:35:32.118Z,65.90
2024-03-18T15:37:59.289Z,65.81
2024-03-18T15:40:26.634Z,65.91
2024-03-18T15:42:53.815Z,65.95
2024-03-18T15:45:21.425Z,65.97
2024-03-18T15:47:48.735Z,66.07
2024-03-18T15:50:15.963Z,66.09
2024-03-18T15:52:43.207Z,66.13
2024-03-18T15:55:10.590Z,66.16
2024-03-18T15:57:37.775Z,66.21
2024-03-18T16:00:14.836Z,66.22
2024-03-18T16:02:42.582Z,66.34
2024-03-18T16:05:09.778Z,66.40
2024-03-18T16:07:37.020Z,66.35
2024-03-18T16:10:10.770Z,66.42
2024-03-18T16:12:39.523Z,66.61
2024-03-18T16:15:10.608Z,66.67
2024-03-18T16:17:38.905Z,66.71
2024-03-18T16:20:11.400Z,66.68
2024-03-18T16:22:38.608Z,66.76
2024-03-18T16:25:05.917Z,66.73
2024-03-18T16:27:33.104Z,66.91
2024-03-18T16:30:00.406Z,66.87
2024-03-18T16:32:27.619Z,66.91
2024-03-18T16:34:54.786Z,67.00
2024-03-18T16:37:21.985Z,66.83
2024-03-18T16:39:49.375Z,66.83
2024-03-18T16:42:18.679Z,66.84
2024-03-18T16:44:45.932Z,66.85
2024-03-18T16:47:13.146Z,66.86
2024-03-18T16:49:40.597Z,66.91
2024-03-18T16:52:07.936Z,66.92
2024-03-18T16:54:35.137Z,67.10
2024-03-18T16:57:02.425Z,67.15
2024-03-18T16:59:29.653Z,67.21
2024-03-18T17:01:56.813Z,67.27
2024-03-18T17:04:24.638Z,67.38
2024-03-18T17:06:53.923Z,67.28
2024-03-18T17:09:24.742Z,67.35
2024-03-18T17:11:51.925Z,67.29
2024-03-18T17:14:23.465Z,67.30
2024-03-18T17:16:50.913Z,67.45
2024-03-18T17:19:18.239Z,67.50
2024-03-18T17:21:46.937Z,67.53
2024-03-18T17:24:16.381Z,67.52
2024-03-18T17:26:43.881Z,67.42
2024-03-18T17:29:11.870Z,67.55
2024-03-18T17:31:40.690Z,67.43
2024-03-18T17:34:08.021Z,67.57
2024-03-18T17:37:04.349Z,67.60
2024-03-18T17:39:22.374Z,67.49
2024-03-18T17:41:49.566Z,67.58
2024-03-18T17:44:17.806Z,67.62
2024-03-18T17:46:45.725Z,67.77
2024-03-18T17:49:12.933Z,67.70
2024-03-18T17:51:40.129Z,67.73
2024-03-18T17:54:07.818Z,67.69
2024-03-18T17:56:35.117Z,67.72
2024-03-18T17:59:09.891Z,67.69
2024-03-18T18:01:37.161Z,67.74
2024-03-18T18:04:05.338Z,67.87
2024-03-18T18:06:34.303Z,67.90
2024-03-18T18:09:06.393Z,67.90
2024-03-18T18:11:34.168Z,67.95
2024-03-18T18:14:01.352Z,67.91
2024-03-18T18:16:28.957Z,68.04
2024-03-18T18:18:56.104Z,68.01
2024-03-18T18:21:23.317Z,68.03
2024-03-18T18:23:54.100Z,68.07
2024-03-18T18:26:21.828Z,68.11
2024-03-18T18:28:49.045Z,68.18
2024-03-18T18:31:17.408Z,68.21
2024-03-18T18:33:44.679Z,68.17
2024-03-18T18:36:11.899Z,68.22
2024-03-18T18:38:44.246Z,68.30
2024-03-18T18:41:11.993Z,68.26
2024-03-18T18:43:41.001Z,68.31
2024-03-18T18:46:08.307Z,68.34
2024-03-18T18:48:35.575Z,68.34
2024-03-18T18:51:03.297Z,68.19
2024-03-18T18:53:32.637Z,68.32
2024-03-18T18:56:01.702Z,68.24
2024-03-18T18:58:30.443Z,68.38
2024-03-18T19:00:58.400Z,68.33
2024-03-18T19:03:26.452Z,68.27
2024-03-18T19:05:53.834Z,68.32
2024-03-18T19:08:22.188Z,68.31
2024-03-18T19:10:49.760Z,68.45
2024-03-18T19:13:18.752Z,68.39
2024-03-18T19:15:47.305Z,68.51
2024-03-18T19:18:14.743Z,68.51
2024-03-18T19:20:42.067Z,68.53
2024-03-18T19:23:09.283Z,68.41
2024-03-18T19:25:37.503Z,68.51
2024-03-18T19:28:12.408Z,68.70
2024-03-18T19:30:43.008Z,68.65
2024-03-18T19:33:10.246Z,68.72
2024-03-18T19:35:41.010Z,68.64
2024-03-18T19:38:08.568Z,68.74
2024-03-18T19:40:36.029Z,68.74
2024-03-18T19:43:04.840Z,68.84
2024-03-18T19:45:32.273Z,68.91
2024-03-18T19:47:59.430Z,68.91
2024-03-18T19:50:26.679Z,68.85
2024-03-18T19:52:54.747Z,68.85
2024-03-18T19:55:21.996Z,68.77
2024-03-18T19:57:49.178Z,68.93
2024-03-18T20:00:18.733Z,68.99
2024-03-18T20:02:45.991Z,68.96
2024-03-18T20:05:14.053Z,68.93
2024-03-18T20:07:41.623Z,68.93
2024-03-18T20:10:10.550Z,68.94
2024-03-18T20:12:47.243Z,68.91
2024-03-18T20:15:16.551Z,68.90
2024-03-18T20:17:46.559Z,68.97
2024-03-18T20:20:14.358Z,69.02
2024-03-18T20:22:43.872Z,69.10
2024-03-18T20:25:16.003Z,69.00
2024-03-18T20:27:47.786Z,69.10
2024-03-18T20:30:20.737Z,69.06
2024-03-18T20:32:48.615Z,69.07
2024-03-18T20:35:16.454Z,69.03
2024-03-18T20:37:48.284Z,69.10
2024-03-18T20:40:17.222Z,69.15
2024-03-18T20:42:46.506Z,69.16
2024-03-18T20:45:16.266Z,69.27
2024-03-18T20:47:46.769Z,69.29
2024-03-18T20:50:14.108Z,69.40
2024-03-18T20:52:41.713Z,69.32
2024-03-18T20:55:13.061Z,69.23
2024-03-18T20:57:41.681Z,69.32
2024-03-18T21:00:15.145Z,69.34
2024-03-18T21:02:47.080Z,69.33
2024-03-18T21:05:15.119Z,69.49
2024-03-18T21:07:45.228Z,69.50
2024-03-18T21:10:20.229Z,69.63
2024-03-18T21:12:51.379Z,69.67
2024-03-18T21:15:19.212Z,69.61
2024-03-18T21:17:46.573Z,69.74
2024-03-18T21:20:16.258Z,69.72
2024-03-18T21:22:47.836Z,69.81
2024-03-18T21:25:16.838Z,69.91
2024-03-18T21:27:46.019Z,69.93
2024-03-18T21:30:13.216Z,69.88
2024-03-18T21:32:40.907Z,69.99
2024-03-18T21:35:11.178Z,69.99
2024-03-18T21:37:38.581Z,69.94
2024-03-18T21:40:06.529Z,70.08
2024-03-18T21:42:34.728Z,70.09
2024-03-18T21:45:03.021Z,70.11
2024-03-18T21:47:30.233Z,70.26
2024-03-18T21:49:57.576Z,70.15
2024-03-18T21:52:24.945Z,70.01
2024-03-18T21:54:52.740Z,70.05
2024-03-18T21:57:19.945Z,69.78
2024-03-18T21:59:48.276Z,69.82
2024-03-18T22:02:15.932Z,69.88
2024-03-18T22:04:43.089Z,69.84
2024-03-18T22:07:10.296Z,69.88
2024-03-18T22:09:38.830Z,69.81
2024-03-18T22:12:06.447Z,69.79
2024-03-18T22:14:38.250Z,69.87
2024-03-18T22:17:12.093Z,69.89
2024-03-18T22:19:40.302Z,69.92
2024-03-18T22:22:08.380Z,69.95
2024-03-18T22:24:35.538Z,70.11
2024-03-18T22:27:02.806Z,70.26
2024-03-18T22:29:30.007Z,70.29
2024-03-18T22:31:57.246Z,70.38
2024-03-18T22:34:24.397Z,70.39
2024-03-18T22:36:51.544Z,70.37
2024-03-18T22:39:18.747Z,70.51
2024-03-18T22:41:45.916Z,70.52
2024-03-18T22:44:13.133Z,70.53
2024-03-18T22:46:40.331Z,70.45
2024-03-18T22:49:11.087Z,70.40
2024-03-18T22:51:38.349Z,70.56
2024-03-18T22:54:05.518Z,70.46
2024-03-18T22:56:33.566Z,70.48
2024-03-18T22:59:00.960Z,70.44
2024-03-18T23:01:28.189Z,70.49
2024-03-18T23:03:55.375Z,70.47
2024-03-18T23:06:22.812Z,70.42
2024-03-18T23:08:50.022Z,70.43
2024-03-18T23:11:17.268Z,70.47
2024-03-18T23:13:44.459Z,70.40
2024-03-18T23:16:11.753Z,70.51
2024-03-18T23:18:38.888Z,70.39
2024-03-18T23:21:06.092Z,70.50
2024-03-18T23:23:33.463Z,70.43
2024-03-18T23:26:02.226Z,70.48
2024-03-18T23:28:29.522Z,70.32
2024-03-18T23:30:56.806Z,70.46
2024-03-18T23:33:24.115Z,70.45
2024-03-18T23:35:51.482Z,70.58
2024-03-18T23:38:18.749Z,70.54
2024-03-18T23:40:47.634Z,70.57
2024-03-18T23:43:15.961Z,70.54
2024-03-18T23:45:59.460Z,70.61
2024-03-18T23:48:26.643Z,70.62
2024-03-18T23:50:53.796Z,70.56
2024-03-18T23:53:21.059Z,70.73
2024-03-18T23:55:48.281Z,70.65
2024-03-18T23:58:15.553Z,70.71
